Forest Park, Washington
Current Conditions -  °F | °C
As of 11:53 PM on Wednesday 22 Oct 2014 (Local Time) from KPAE Reporting Station
Light Rain Light Rain  
Wind Chill: 55°   Ceiling: 9500
Heat Index: 55°   Visibility: 10mi
Dew Point: 49°   Wind: 21mph
Humidity: 80%   Direction: 190°S
Pressure: 29.65"   Gusts: 28mph
Location:  47.7583°N, 122.295°W
Report Text: KPAE 230653Z AUTO 19018G24KT 10SM -RA FEW070 OVC095 13/09 A2965 RMK AO2 PK WND 18028/0639 RAB46 SLP041 P0000 T01280094
Loading
Personal Weather Stations






























Interactive Weather Map
Tropical Storm Tracking
New forecast layout! Learn more

10-Day Weather Forecast

Advertisements
Track Severe Weather on mobile